sensor_id;sensor_type;location;lat;lon;timestamp;P1;durP1;ratioP1;P2;durP2;ratioP2
22679;SDS011;11507;44.858;10.374;2022-07-17T00:00:03;9.60;;;6.72;;
22679;SDS011;11507;44.858;10.374;2022-07-17T00:02:29;8.52;;;6.32;;
22679;SDS011;11507;44.858;10.374;2022-07-17T00:04:55;9.77;;;6.88;;
22679;SDS011;11507;44.858;10.374;2022-07-17T00:07:21;9.85;;;6.38;;
22679;SDS011;11507;44.858;10.374;2022-07-17T00:09:47;11.00;;;6.75;;
22679;SDS011;11507;44.858;10.374;2022-07-17T00:12:13;12.25;;;6.65;;
22679;SDS011;11507;44.858;10.374;2022-07-17T00:14:39;8.70;;;6.10;;
22679;SDS011;11507;44.858;10.374;2022-07-17T00:17:05;8.25;;;6.25;;
22679;SDS011;11507;44.858;10.374;2022-07-17T00:19:31;8.65;;;6.40;;
22679;SDS011;11507;44.858;10.374;2022-07-17T00:21:57;10.35;;;7.00;;
22679;SDS011;11507;44.858;10.374;2022-07-17T00:24:24;12.98;;;7.47;;
22679;SDS011;11507;44.858;10.374;2022-07-17T00:26:50;11.02;;;6.78;;
22679;SDS011;11507;44.858;10.374;2022-07-17T00:29:17;14.10;;;6.80;;
22679;SDS011;11507;44.858;10.374;2022-07-17T00:31:44;9.95;;;6.60;;
22679;SDS011;11507;44.858;10.374;2022-07-17T00:34:10;10.13;;;6.50;;
22679;SDS011;11507;44.858;10.374;2022-07-17T00:36:36;9.70;;;6.72;;
22679;SDS011;11507;44.858;10.374;2022-07-17T00:39:02;8.40;;;5.85;;
22679;SDS011;11507;44.858;10.374;2022-07-17T00:41:29;11.07;;;6.20;;
22679;SDS011;11507;44.858;10.374;2022-07-17T00:44:02;13.88;;;6.80;;
22679;SDS011;11507;44.858;10.374;2022-07-17T00:46:37;9.18;;;6.32;;
22679;SDS011;11507;44.858;10.374;2022-07-17T00:49:05;9.93;;;6.20;;
22679;SDS011;11507;44.858;10.374;2022-07-17T00:51:32;11.13;;;6.72;;
22679;SDS011;11507;44.858;10.374;2022-07-17T00:53:58;8.15;;;6.47;;
22679;SDS011;11507;44.858;10.374;2022-07-17T00:56:26;14.73;;;7.10;;
22679;SDS011;11507;44.858;10.374;2022-07-17T00:58:53;12.05;;;7.15;;
22679;SDS011;11507;44.858;10.374;2022-07-17T01:01:19;11.57;;;6.90;;
22679;SDS011;11507;44.858;10.374;2022-07-17T01:03:45;10.35;;;8.15;;
22679;SDS011;11507;44.858;10.374;2022-07-17T01:06:12;9.80;;;7.40;;
22679;SDS011;11507;44.858;10.374;2022-07-17T01:08:38;14.40;;;7.88;;
22679;SDS011;11507;44.858;10.374;2022-07-17T01:11:04;11.02;;;8.55;;
22679;SDS011;11507;44.858;10.374;2022-07-17T01:13:32;13.77;;;8.65;;
22679;SDS011;11507;44.858;10.374;2022-07-17T01:15:59;12.30;;;9.30;;
22679;SDS011;11507;44.858;10.374;2022-07-17T01:18:24;14.93;;;8.68;;
22679;SDS011;11507;44.858;10.374;2022-07-17T01:20:50;14.23;;;9.10;;
22679;SDS011;11507;44.858;10.374;2022-07-17T01:23:17;13.73;;;9.40;;
22679;SDS011;11507;44.858;10.374;2022-07-17T01:25:44;16.08;;;9.05;;
22679;SDS011;11507;44.858;10.374;2022-07-17T01:28:12;10.93;;;8.50;;
22679;SDS011;11507;44.858;10.374;2022-07-17T01:30:49;11.30;;;8.60;;
22679;SDS011;11507;44.858;10.374;2022-07-17T01:33:16;15.38;;;9.40;;
22679;SDS011;11507;44.858;10.374;2022-07-17T01:35:42;12.95;;;9.32;;
22679;SDS011;11507;44.858;10.374;2022-07-17T01:38:08;13.52;;;9.43;;
22679;SDS011;11507;44.858;10.374;2022-07-17T01:40:34;14.65;;;10.65;;
22679;SDS011;11507;44.858;10.374;2022-07-17T01:43:00;14.88;;;10.73;;
22679;SDS011;11507;44.858;10.374;2022-07-17T01:45:25;12.20;;;10.80;;
22679;SDS011;11507;44.858;10.374;2022-07-17T01:47:51;12.98;;;10.93;;
22679;SDS011;11507;44.858;10.374;2022-07-17T01:50:18;14.75;;;9.73;;
22679;SDS011;11507;44.858;10.374;2022-07-17T01:52:44;15.38;;;11.10;;
22679;SDS011;11507;44.858;10.374;2022-07-17T01:55:11;14.68;;;10.25;;
22679;SDS011;11507;44.858;10.374;2022-07-17T01:57:39;15.52;;;11.38;;
22679;SDS011;11507;44.858;10.374;2022-07-17T02:00:06;12.18;;;10.80;;
22679;SDS011;11507;44.858;10.374;2022-07-17T02:02:35;13.13;;;11.27;;
22679;SDS011;11507;44.858;10.374;2022-07-17T02:05:01;16.17;;;11.27;;
22679;SDS011;11507;44.858;10.374;2022-07-17T02:07:27;15.68;;;12.35;;
22679;SDS011;11507;44.858;10.374;2022-07-17T02:09:54;17.25;;;12.40;;
22679;SDS011;11507;44.858;10.374;2022-07-17T02:12:20;14.73;;;11.88;;
22679;SDS011;11507;44.858;10.374;2022-07-17T02:14:46;17.95;;;12.85;;
22679;SDS011;11507;44.858;10.374;2022-07-17T02:17:12;19.80;;;14.57;;
22679;SDS011;11507;44.858;10.374;2022-07-17T02:19:38;18.02;;;14.10;;
22679;SDS011;11507;44.858;10.374;2022-07-17T02:22:04;18.25;;;13.85;;
22679;SDS011;11507;44.858;10.374;2022-07-17T02:24:29;15.57;;;12.75;;
22679;SDS011;11507;44.858;10.374;2022-07-17T02:26:55;18.50;;;13.50;;
22679;SDS011;11507;44.858;10.374;2022-07-17T02:29:21;14.23;;;11.93;;
22679;SDS011;11507;44.858;10.374;2022-07-17T02:31:47;17.02;;;13.88;;
22679;SDS011;11507;44.858;10.374;2022-07-17T02:34:13;14.00;;;12.35;;
22679;SDS011;11507;44.858;10.374;2022-07-17T02:36:39;17.10;;;12.98;;
22679;SDS011;11507;44.858;10.374;2022-07-17T02:39:04;18.95;;;16.13;;
22679;SDS011;11507;44.858;10.374;2022-07-17T02:41:30;17.33;;;14.20;;
22679;SDS011;11507;44.858;10.374;2022-07-17T02:43:56;20.30;;;14.68;;
22679;SDS011;11507;44.858;10.374;2022-07-17T02:46:22;20.45;;;16.38;;
22679;SDS011;11507;44.858;10.374;2022-07-17T02:48:47;19.48;;;15.27;;
22679;SDS011;11507;44.858;10.374;2022-07-17T02:51:13;17.77;;;15.13;;
22679;SDS011;11507;44.858;10.374;2022-07-17T02:53:39;18.38;;;13.68;;
22679;SDS011;11507;44.858;10.374;2022-07-17T02:56:05;20.15;;;16.25;;
22679;SDS011;11507;44.858;10.374;2022-07-17T02:58:31;20.73;;;17.10;;
22679;SDS011;11507;44.858;10.374;2022-07-17T03:00:57;22.17;;;16.27;;
22679;SDS011;11507;44.858;10.374;2022-07-17T03:03:23;21.25;;;17.05;;
22679;SDS011;11507;44.858;10.374;2022-07-17T03:05:49;20.25;;;15.73;;
22679;SDS011;11507;44.858;10.374;2022-07-17T03:08:14;20.15;;;16.90;;
22679;SDS011;11507;44.858;10.374;2022-07-17T03:10:42;21.95;;;18.08;;
22679;SDS011;11507;44.858;10.374;2022-07-17T03:13:08;20.60;;;16.88;;
22679;SDS011;11507;44.858;10.374;2022-07-17T03:15:33;18.10;;;15.43;;
22679;SDS011;11507;44.858;10.374;2022-07-17T03:17:59;22.48;;;17.30;;
22679;SDS011;11507;44.858;10.374;2022-07-17T03:20:25;18.70;;;15.40;;
22679;SDS011;11507;44.858;10.374;2022-07-17T03:22:52;20.73;;;16.08;;
22679;SDS011;11507;44.858;10.374;2022-07-17T03:25:18;24.05;;;17.30;;
22679;SDS011;11507;44.858;10.374;2022-07-17T03:27:45;23.45;;;17.52;;
22679;SDS011;11507;44.858;10.374;2022-07-17T03:30:11;22.00;;;18.98;;
22679;SDS011;11507;44.858;10.374;2022-07-17T03:32:37;18.67;;;16.67;;
22679;SDS011;11507;44.858;10.374;2022-07-17T03:35:03;18.90;;;15.07;;
22679;SDS011;11507;44.858;10.374;2022-07-17T03:37:29;19.73;;;15.15;;
22679;SDS011;11507;44.858;10.374;2022-07-17T03:39:55;21.45;;;15.95;;
22679;SDS011;11507;44.858;10.374;2022-07-17T03:42:21;23.95;;;17.48;;
22679;SDS011;11507;44.858;10.374;2022-07-17T03:44:46;21.35;;;15.77;;
22679;SDS011;11507;44.858;10.374;2022-07-17T03:47:12;23.73;;;17.83;;
22679;SDS011;11507;44.858;10.374;2022-07-17T03:49:38;19.45;;;15.20;;
22679;SDS011;11507;44.858;10.374;2022-07-17T03:52:04;23.48;;;17.25;;
22679;SDS011;11507;44.858;10.374;2022-07-17T03:54:30;19.25;;;15.40;;
22679;SDS011;11507;44.858;10.374;2022-07-17T03:56:56;21.95;;;17.38;;
22679;SDS011;11507;44.858;10.374;2022-07-17T03:59:22;22.75;;;18.50;;
22679;SDS011;11507;44.858;10.374;2022-07-17T04:01:48;22.20;;;18.33;;
22679;SDS011;11507;44.858;10.374;2022-07-17T04:04:14;22.60;;;17.73;;
22679;SDS011;11507;44.858;10.374;2022-07-17T04:06:40;19.67;;;15.35;;
22679;SDS011;11507;44.858;10.374;2022-07-17T04:09:07;18.25;;;14.68;;
22679;SDS011;11507;44.858;10.374;2022-07-17T04:11:33;26.50;;;18.83;;
22679;SDS011;11507;44.858;10.374;2022-07-17T04:13:59;23.48;;;18.73;;
22679;SDS011;11507;44.858;10.374;2022-07-17T04:16:25;23.60;;;18.83;;
22679;SDS011;11507;44.858;10.374;2022-07-17T04:18:51;20.00;;;16.02;;
22679;SDS011;11507;44.858;10.374;2022-07-17T04:21:17;25.40;;;18.50;;
22679;SDS011;11507;44.858;10.374;2022-07-17T04:23:44;21.20;;;15.77;;
22679;SDS011;11507;44.858;10.374;2022-07-17T04:26:10;21.10;;;16.80;;
22679;SDS011;11507;44.858;10.374;2022-07-17T04:28:38;19.45;;;14.70;;
22679;SDS011;11507;44.858;10.374;2022-07-17T04:31:04;22.52;;;15.35;;
22679;SDS011;11507;44.858;10.374;2022-07-17T04:33:30;24.63;;;17.48;;
22679;SDS011;11507;44.858;10.374;2022-07-17T04:35:56;22.30;;;17.85;;
22679;SDS011;11507;44.858;10.374;2022-07-17T04:38:21;20.92;;;15.20;;
22679;SDS011;11507;44.858;10.374;2022-07-17T04:40:47;20.02;;;15.43;;
22679;SDS011;11507;44.858;10.374;2022-07-17T04:43:13;16.73;;;14.70;;
22679;SDS011;11507;44.858;10.374;2022-07-17T04:45:39;21.88;;;16.33;;
22679;SDS011;11507;44.858;10.374;2022-07-17T04:48:05;20.08;;;13.73;;
22679;SDS011;11507;44.858;10.374;2022-07-17T04:50:31;16.15;;;14.45;;
22679;SDS011;11507;44.858;10.374;2022-07-17T04:52:58;16.88;;;13.55;;
22679;SDS011;11507;44.858;10.374;2022-07-17T04:55:27;21.05;;;15.75;;
22679;SDS011;11507;44.858;10.374;2022-07-17T04:57:53;17.25;;;15.00;;
22679;SDS011;11507;44.858;10.374;2022-07-17T05:00:19;17.38;;;13.38;;
22679;SDS011;11507;44.858;10.374;2022-07-17T05:02:45;16.70;;;13.23;;
22679;SDS011;11507;44.858;10.374;2022-07-17T05:05:11;18.85;;;14.52;;
22679;SDS011;11507;44.858;10.374;2022-07-17T05:07:37;17.67;;;13.73;;
22679;SDS011;11507;44.858;10.374;2022-07-17T05:10:03;18.20;;;14.40;;
22679;SDS011;11507;44.858;10.374;2022-07-17T05:12:30;17.30;;;14.43;;
22679;SDS011;11507;44.858;10.374;2022-07-17T05:14:55;22.48;;;14.60;;
22679;SDS011;11507;44.858;10.374;2022-07-17T05:17:21;18.90;;;15.15;;
22679;SDS011;11507;44.858;10.374;2022-07-17T05:19:47;18.75;;;15.02;;
22679;SDS011;11507;44.858;10.374;2022-07-17T05:22:13;23.35;;;15.73;;
22679;SDS011;11507;44.858;10.374;2022-07-17T05:24:39;19.80;;;15.38;;
22679;SDS011;11507;44.858;10.374;2022-07-17T05:27:05;16.67;;;13.50;;
22679;SDS011;11507;44.858;10.374;2022-07-17T05:29:30;18.73;;;14.70;;
22679;SDS011;11507;44.858;10.374;2022-07-17T05:31:56;18.95;;;14.05;;
22679;SDS011;11507;44.858;10.374;2022-07-17T05:34:22;14.85;;;13.15;;
22679;SDS011;11507;44.858;10.374;2022-07-17T05:36:48;18.13;;;14.18;;
22679;SDS011;11507;44.858;10.374;2022-07-17T05:39:16;18.92;;;14.63;;
22679;SDS011;11507;44.858;10.374;2022-07-17T05:41:43;22.92;;;15.77;;
22679;SDS011;11507;44.858;10.374;2022-07-17T05:44:09;17.08;;;14.10;;
22679;SDS011;11507;44.858;10.374;2022-07-17T05:46:34;17.45;;;14.30;;
22679;SDS011;11507;44.858;10.374;2022-07-17T05:49:00;23.08;;;15.25;;
22679;SDS011;11507;44.858;10.374;2022-07-17T05:51:26;18.70;;;13.35;;
22679;SDS011;11507;44.858;10.374;2022-07-17T05:53:52;15.43;;;12.80;;
22679;SDS011;11507;44.858;10.374;2022-07-17T05:56:18;18.48;;;14.23;;
22679;SDS011;11507;44.858;10.374;2022-07-17T05:58:44;19.98;;;14.23;;
22679;SDS011;11507;44.858;10.374;2022-07-17T06:01:11;18.17;;;12.25;;
22679;SDS011;11507;44.858;10.374;2022-07-17T06:03:37;18.83;;;13.63;;
22679;SDS011;11507;44.858;10.374;2022-07-17T06:06:03;20.75;;;14.48;;
22679;SDS011;11507;44.858;10.374;2022-07-17T06:08:29;18.25;;;12.88;;
22679;SDS011;11507;44.858;10.374;2022-07-17T06:10:55;17.23;;;13.15;;
22679;SDS011;11507;44.858;10.374;2022-07-17T06:13:22;16.20;;;12.35;;
22679;SDS011;11507;44.858;10.374;2022-07-17T06:15:48;20.65;;;12.88;;
22679;SDS011;11507;44.858;10.374;2022-07-17T06:18:14;17.05;;;12.98;;
22679;SDS011;11507;44.858;10.374;2022-07-17T06:20:40;17.45;;;12.93;;
22679;SDS011;11507;44.858;10.374;2022-07-17T06:23:06;16.88;;;13.00;;
22679;SDS011;11507;44.858;10.374;2022-07-17T06:25:33;20.00;;;12.60;;
22679;SDS011;11507;44.858;10.374;2022-07-17T06:28:00;14.77;;;13.10;;
22679;SDS011;11507;44.858;10.374;2022-07-17T06:30:26;14.65;;;11.77;;
22679;SDS011;11507;44.858;10.374;2022-07-17T06:32:52;12.57;;;10.50;;
22679;SDS011;11507;44.858;10.374;2022-07-17T06:35:18;13.90;;;10.13;;
22679;SDS011;11507;44.858;10.374;2022-07-17T06:37:44;13.73;;;9.82;;
22679;SDS011;11507;44.858;10.374;2022-07-17T06:40:10;11.90;;;9.40;;
22679;SDS011;11507;44.858;10.374;2022-07-17T06:42:36;12.52;;;8.40;;
22679;SDS011;11507;44.858;10.374;2022-07-17T06:45:03;17.15;;;8.63;;
22679;SDS011;11507;44.858;10.374;2022-07-17T06:47:31;12.25;;;8.00;;
22679;SDS011;11507;44.858;10.374;2022-07-17T06:49:57;11.55;;;8.30;;
22679;SDS011;11507;44.858;10.374;2022-07-17T06:52:22;12.45;;;8.10;;
22679;SDS011;11507;44.858;10.374;2022-07-17T06:54:48;11.90;;;7.35;;
22679;SDS011;11507;44.858;10.374;2022-07-17T06:57:14;10.75;;;7.97;;
22679;SDS011;11507;44.858;10.374;2022-07-17T06:59:43;10.48;;;7.63;;
22679;SDS011;11507;44.858;10.374;2022-07-17T07:02:09;12.63;;;8.23;;
22679;SDS011;11507;44.858;10.374;2022-07-17T07:04:35;10.30;;;7.93;;
22679;SDS011;11507;44.858;10.374;2022-07-17T07:07:01;11.32;;;7.70;;
22679;SDS011;11507;44.858;10.374;2022-07-17T07:09:28;10.65;;;7.82;;
22679;SDS011;11507;44.858;10.374;2022-07-17T07:11:53;12.98;;;8.77;;
22679;SDS011;11507;44.858;10.374;2022-07-17T07:14:19;10.70;;;8.50;;
22679;SDS011;11507;44.858;10.374;2022-07-17T07:16:45;11.13;;;8.18;;
22679;SDS011;11507;44.858;10.374;2022-07-17T07:19:11;10.07;;;7.85;;
22679;SDS011;11507;44.858;10.374;2022-07-17T07:21:37;11.15;;;8.25;;
22679;SDS011;11507;44.858;10.374;2022-07-17T07:24:03;12.13;;;8.10;;
22679;SDS011;11507;44.858;10.374;2022-07-17T07:26:31;11.52;;;8.43;;
22679;SDS011;11507;44.858;10.374;2022-07-17T07:28:57;10.15;;;7.40;;
22679;SDS011;11507;44.858;10.374;2022-07-17T07:31:24;10.45;;;7.70;;
22679;SDS011;11507;44.858;10.374;2022-07-17T07:33:50;13.40;;;7.32;;
22679;SDS011;11507;44.858;10.374;2022-07-17T07:36:17;10.55;;;7.55;;
22679;SDS011;11507;44.858;10.374;2022-07-17T07:38:43;12.32;;;7.88;;
22679;SDS011;11507;44.858;10.374;2022-07-17T07:41:11;11.38;;;7.97;;
22679;SDS011;11507;44.858;10.374;2022-07-17T07:43:37;12.50;;;7.90;;
22679;SDS011;11507;44.858;10.374;2022-07-17T07:46:03;12.20;;;8.02;;
22679;SDS011;11507;44.858;10.374;2022-07-17T07:48:30;14.63;;;7.90;;
22679;SDS011;11507;44.858;10.374;2022-07-17T07:50:56;13.23;;;7.57;;
22679;SDS011;11507;44.858;10.374;2022-07-17T07:53:23;9.20;;;7.20;;
22679;SDS011;11507;44.858;10.374;2022-07-17T07:55:49;11.48;;;7.28;;
22679;SDS011;11507;44.858;10.374;2022-07-17T07:58:16;13.40;;;7.90;;
22679;SDS011;11507;44.858;10.374;2022-07-17T08:00:43;8.25;;;7.07;;
22679;SDS011;11507;44.858;10.374;2022-07-17T08:03:11;10.40;;;7.00;;
22679;SDS011;11507;44.858;10.374;2022-07-17T08:05:38;10.63;;;7.13;;
22679;SDS011;11507;44.858;10.374;2022-07-17T08:08:04;10.55;;;6.70;;
22679;SDS011;11507;44.858;10.374;2022-07-17T08:10:30;10.98;;;6.65;;
22679;SDS011;11507;44.858;10.374;2022-07-17T08:12:56;9.35;;;7.07;;
22679;SDS011;11507;44.858;10.374;2022-07-17T08:18:06;9.63;;;6.65;;
22679;SDS011;11507;44.858;10.374;2022-07-17T08:20:33;10.70;;;6.57;;
22679;SDS011;11507;44.858;10.374;2022-07-17T08:23:00;9.05;;;6.50;;
22679;SDS011;11507;44.858;10.374;2022-07-17T08:25:26;9.85;;;5.90;;
22679;SDS011;11507;44.858;10.374;2022-07-17T08:27:52;10.50;;;6.03;;
22679;SDS011;11507;44.858;10.374;2022-07-17T08:30:19;10.27;;;6.20;;
22679;SDS011;11507;44.858;10.374;2022-07-17T08:32:45;9.52;;;6.15;;
22679;SDS011;11507;44.858;10.374;2022-07-17T08:35:12;8.55;;;5.80;;
22679;SDS011;11507;44.858;10.374;2022-07-17T08:37:46;7.85;;;5.70;;
22679;SDS011;11507;44.858;10.374;2022-07-17T08:40:17;7.77;;;5.83;;
22679;SDS011;11507;44.858;10.374;2022-07-17T08:42:54;8.10;;;5.47;;
22679;SDS011;11507;44.858;10.374;2022-07-17T08:45:22;8.32;;;5.03;;
22679;SDS011;11507;44.858;10.374;2022-07-17T08:47:50;10.93;;;5.65;;
22679;SDS011;11507;44.858;10.374;2022-07-17T08:50:22;9.23;;;5.32;;
22679;SDS011;11507;44.858;10.374;2022-07-17T08:52:53;8.90;;;5.63;;
22679;SDS011;11507;44.858;10.374;2022-07-17T08:55:24;6.85;;;6.03;;
22679;SDS011;11507;44.858;10.374;2022-07-17T08:57:52;8.45;;;5.55;;
22679;SDS011;11507;44.858;10.374;2022-07-17T09:00:19;8.23;;;5.32;;
22679;SDS011;11507;44.858;10.374;2022-07-17T09:03:05;11.60;;;5.30;;
22679;SDS011;11507;44.858;10.374;2022-07-17T09:05:33;8.30;;;5.50;;
22679;SDS011;11507;44.858;10.374;2022-07-17T09:08:06;9.48;;;5.32;;
22679;SDS011;11507;44.858;10.374;2022-07-17T09:10:41;8.27;;;5.45;;
22679;SDS011;11507;44.858;10.374;2022-07-17T09:13:18;8.82;;;5.50;;
22679;SDS011;11507;44.858;10.374;2022-07-17T09:15:59;9.48;;;5.28;;
22679;SDS011;11507;44.858;10.374;2022-07-17T09:18:52;7.10;;;5.45;;
22679;SDS011;11507;44.858;10.374;2022-07-17T09:26:45;7.63;;;5.78;;
22679;SDS011;11507;44.858;10.374;2022-07-17T09:29:13;8.35;;;5.57;;
22679;SDS011;11507;44.858;10.374;2022-07-17T09:31:39;8.85;;;6.00;;
22679;SDS011;11507;44.858;10.374;2022-07-17T09:34:16;11.77;;;6.10;;
22679;SDS011;11507;44.858;10.374;2022-07-17T09:36:44;9.68;;;5.97;;
22679;SDS011;11507;44.858;10.374;2022-07-17T09:39:10;7.57;;;6.15;;
22679;SDS011;11507;44.858;10.374;2022-07-17T09:41:38;8.25;;;5.97;;
22679;SDS011;11507;44.858;10.374;2022-07-17T09:44:04;11.55;;;6.38;;
22679;SDS011;11507;44.858;10.374;2022-07-17T09:49:04;8.02;;;5.50;;
22679;SDS011;11507;44.858;10.374;2022-07-17T09:51:40;7.45;;;6.07;;
22679;SDS011;11507;44.858;10.374;2022-07-17T09:54:10;10.90;;;5.35;;
22679;SDS011;11507;44.858;10.374;2022-07-17T09:56:38;10.02;;;5.40;;
22679;SDS011;11507;44.858;10.374;2022-07-17T09:59:10;7.55;;;5.70;;
22679;SDS011;11507;44.858;10.374;2022-07-17T10:01:38;12.48;;;5.85;;
22679;SDS011;11507;44.858;10.374;2022-07-17T10:04:07;10.48;;;5.50;;
22679;SDS011;11507;44.858;10.374;2022-07-17T10:06:33;6.80;;;5.35;;
22679;SDS011;11507;44.858;10.374;2022-07-17T10:09:00;9.43;;;5.55;;
22679;SDS011;11507;44.858;10.374;2022-07-17T10:11:31;8.77;;;5.28;;
22679;SDS011;11507;44.858;10.374;2022-07-17T10:16:33;11.40;;;5.85;;
22679;SDS011;11507;44.858;10.374;2022-07-17T10:19:03;10.77;;;5.50;;
22679;SDS011;11507;44.858;10.374;2022-07-17T10:21:57;8.80;;;5.28;;
22679;SDS011;11507;44.858;10.374;2022-07-17T10:24:27;7.75;;;5.28;;
22679;SDS011;11507;44.858;10.374;2022-07-17T10:26:54;7.82;;;4.90;;
22679;SDS011;11507;44.858;10.374;2022-07-17T10:29:28;8.60;;;4.80;;
22679;SDS011;11507;44.858;10.374;2022-07-17T10:31:59;8.98;;;5.10;;
22679;SDS011;11507;44.858;10.374;2022-07-17T10:50:30;9.13;;;4.93;;
22679;SDS011;11507;44.858;10.374;2022-07-17T10:55:51;9.30;;;4.93;;
22679;SDS011;11507;44.858;10.374;2022-07-17T10:58:26;7.97;;;5.05;;
22679;SDS011;11507;44.858;10.374;2022-07-17T11:01:09;6.93;;;4.97;;
22679;SDS011;11507;44.858;10.374;2022-07-17T11:08:51;8.32;;;4.78;;
22679;SDS011;11507;44.858;10.374;2022-07-17T11:11:23;8.95;;;4.90;;
22679;SDS011;11507;44.858;10.374;2022-07-17T11:14:15;7.90;;;4.70;;
22679;SDS011;11507;44.858;10.374;2022-07-17T11:16:47;10.48;;;5.20;;
22679;SDS011;11507;44.858;10.374;2022-07-17T11:19:30;10.02;;;4.93;;
22679;SDS011;11507;44.858;10.374;2022-07-17T11:22:02;8.52;;;4.90;;
22679;SDS011;11507;44.858;10.374;2022-07-17T11:24:45;6.53;;;4.80;;
22679;SDS011;11507;44.858;10.374;2022-07-17T11:27:23;6.68;;;4.90;;
22679;SDS011;11507;44.858;10.374;2022-07-17T11:29:54;8.20;;;4.97;;
22679;SDS011;11507;44.858;10.374;2022-07-17T11:32:23;8.70;;;4.65;;
22679;SDS011;11507;44.858;10.374;2022-07-17T11:34:56;9.93;;;4.95;;
22679;SDS011;11507;44.858;10.374;2022-07-17T11:37:22;10.68;;;4.90;;
22679;SDS011;11507;44.858;10.374;2022-07-17T11:39:53;7.47;;;4.70;;
22679;SDS011;11507;44.858;10.374;2022-07-17T11:44:51;9.73;;;4.60;;
22679;SDS011;11507;44.858;10.374;2022-07-17T11:47:29;8.15;;;4.78;;
22679;SDS011;11507;44.858;10.374;2022-07-17T11:52:44;7.47;;;4.80;;
22679;SDS011;11507;44.858;10.374;2022-07-17T11:55:15;10.27;;;4.95;;
22679;SDS011;11507;44.858;10.374;2022-07-17T11:57:47;7.15;;;4.70;;
22679;SDS011;11507;44.858;10.374;2022-07-17T12:00:18;8.55;;;5.05;;
22679;SDS011;11507;44.858;10.374;2022-07-17T12:02:45;10.27;;;4.38;;
22679;SDS011;11507;44.858;10.374;2022-07-17T12:05:14;10.63;;;5.00;;
22679;SDS011;11507;44.858;10.374;2022-07-17T12:07:58;10.00;;;4.88;;
22679;SDS011;11507;44.858;10.374;2022-07-17T12:10:27;8.30;;;4.70;;
22679;SDS011;11507;44.858;10.374;2022-07-17T12:18:18;8.57;;;5.30;;
22679;SDS011;11507;44.858;10.374;2022-07-17T12:20:58;10.25;;;5.55;;
22679;SDS011;11507;44.858;10.374;2022-07-17T12:28:37;8.55;;;4.70;;
22679;SDS011;11507;44.858;10.374;2022-07-17T12:31:10;8.90;;;4.82;;
22679;SDS011;11507;44.858;10.374;2022-07-17T12:33:39;7.28;;;4.75;;
22679;SDS011;11507;44.858;10.374;2022-07-17T12:36:05;8.18;;;4.57;;
22679;SDS011;11507;44.858;10.374;2022-07-17T12:38:31;9.55;;;4.90;;
22679;SDS011;11507;44.858;10.374;2022-07-17T12:40:57;10.20;;;5.15;;
22679;SDS011;11507;44.858;10.374;2022-07-17T12:43:24;6.55;;;5.20;;
22679;SDS011;11507;44.858;10.374;2022-07-17T12:45:50;8.20;;;5.10;;
22679;SDS011;11507;44.858;10.374;2022-07-17T12:48:17;7.32;;;5.30;;
22679;SDS011;11507;44.858;10.374;2022-07-17T12:50:43;9.15;;;4.95;;
22679;SDS011;11507;44.858;10.374;2022-07-17T12:53:09;10.63;;;4.97;;
22679;SDS011;11507;44.858;10.374;2022-07-17T12:55:35;9.30;;;4.70;;
22679;SDS011;11507;44.858;10.374;2022-07-17T12:58:05;8.60;;;4.80;;
22679;SDS011;11507;44.858;10.374;2022-07-17T13:00:37;7.63;;;4.72;;
22679;SDS011;11507;44.858;10.374;2022-07-17T13:03:04;8.40;;;4.75;;
22679;SDS011;11507;44.858;10.374;2022-07-17T13:05:32;8.85;;;5.10;;
22679;SDS011;11507;44.858;10.374;2022-07-17T13:08:00;8.02;;;4.57;;
22679;SDS011;11507;44.858;10.374;2022-07-17T13:10:26;8.23;;;5.20;;
22679;SDS011;11507;44.858;10.374;2022-07-17T13:12:53;8.45;;;5.20;;
22679;SDS011;11507;44.858;10.374;2022-07-17T13:15:21;7.18;;;4.68;;
22679;SDS011;11507;44.858;10.374;2022-07-17T13:17:47;8.38;;;4.60;;
22679;SDS011;11507;44.858;10.374;2022-07-17T13:20:13;9.85;;;5.10;;
22679;SDS011;11507;44.858;10.374;2022-07-17T13:22:40;9.60;;;4.88;;
22679;SDS011;11507;44.858;10.374;2022-07-17T13:25:09;7.72;;;4.70;;
22679;SDS011;11507;44.858;10.374;2022-07-17T13:30:05;9.63;;;4.45;;
22679;SDS011;11507;44.858;10.374;2022-07-17T13:32:32;7.88;;;4.85;;
22679;SDS011;11507;44.858;10.374;2022-07-17T13:34:58;8.57;;;4.80;;
22679;SDS011;11507;44.858;10.374;2022-07-17T13:37:26;12.63;;;4.70;;
22679;SDS011;11507;44.858;10.374;2022-07-17T13:39:53;9.55;;;4.93;;
22679;SDS011;11507;44.858;10.374;2022-07-17T13:42:20;6.57;;;5.00;;
22679;SDS011;11507;44.858;10.374;2022-07-17T13:44:49;7.82;;;4.30;;
22679;SDS011;11507;44.858;10.374;2022-07-17T13:47:15;8.18;;;4.50;;
22679;SDS011;11507;44.858;10.374;2022-07-17T13:49:41;8.32;;;4.60;;
22679;SDS011;11507;44.858;10.374;2022-07-17T13:52:07;6.55;;;4.68;;
22679;SDS011;11507;44.858;10.374;2022-07-17T13:54:33;7.07;;;4.50;;
22679;SDS011;11507;44.858;10.374;2022-07-17T13:59:30;8.27;;;4.55;;
22679;SDS011;11507;44.858;10.374;2022-07-17T14:01:56;6.03;;;4.45;;
22679;SDS011;11507;44.858;10.374;2022-07-17T14:04:24;6.80;;;4.47;;
22679;SDS011;11507;44.858;10.374;2022-07-17T14:06:52;9.90;;;4.57;;
22679;SDS011;11507;44.858;10.374;2022-07-17T14:09:17;7.22;;;4.40;;
22679;SDS011;11507;44.858;10.374;2022-07-17T14:11:43;6.93;;;4.35;;
22679;SDS011;11507;44.858;10.374;2022-07-17T14:14:09;5.05;;;4.35;;
22679;SDS011;11507;44.858;10.374;2022-07-17T14:16:41;6.07;;;4.38;;
22679;SDS011;11507;44.858;10.374;2022-07-17T14:19:08;7.35;;;4.15;;
22679;SDS011;11507;44.858;10.374;2022-07-17T14:21:36;7.18;;;4.57;;
22679;SDS011;11507;44.858;10.374;2022-07-17T14:24:10;9.57;;;4.75;;
22679;SDS011;11507;44.858;10.374;2022-07-17T14:26:37;6.03;;;4.35;;
22679;SDS011;11507;44.858;10.374;2022-07-17T14:29:03;9.18;;;4.57;;
22679;SDS011;11507;44.858;10.374;2022-07-17T14:31:30;11.40;;;4.32;;
22679;SDS011;11507;44.858;10.374;2022-07-17T14:33:56;8.07;;;4.22;;
22679;SDS011;11507;44.858;10.374;2022-07-17T14:36:22;6.82;;;4.25;;
22679;SDS011;11507;44.858;10.374;2022-07-17T14:38:48;6.72;;;4.45;;
22679;SDS011;11507;44.858;10.374;2022-07-17T14:41:15;6.50;;;4.50;;
22679;SDS011;11507;44.858;10.374;2022-07-17T14:43:45;5.22;;;4.20;;
22679;SDS011;11507;44.858;10.374;2022-07-17T14:46:18;5.75;;;4.47;;
22679;SDS011;11507;44.858;10.374;2022-07-17T14:48:45;5.82;;;4.05;;
22679;SDS011;11507;44.858;10.374;2022-07-17T14:51:13;10.38;;;4.90;;
22679;SDS011;11507;44.858;10.374;2022-07-17T14:53:46;6.82;;;4.50;;
22679;SDS011;11507;44.858;10.374;2022-07-17T14:56:16;6.93;;;4.55;;
22679;SDS011;11507;44.858;10.374;2022-07-17T14:58:49;6.25;;;4.40;;
22679;SDS011;11507;44.858;10.374;2022-07-17T15:01:15;9.18;;;4.40;;
22679;SDS011;11507;44.858;10.374;2022-07-17T15:03:44;7.53;;;4.03;;
22679;SDS011;11507;44.858;10.374;2022-07-17T15:06:10;5.72;;;4.40;;
22679;SDS011;11507;44.858;10.374;2022-07-17T15:08:37;7.18;;;4.30;;
22679;SDS011;11507;44.858;10.374;2022-07-17T15:11:04;5.72;;;4.45;;
22679;SDS011;11507;44.858;10.374;2022-07-17T15:13:30;5.93;;;4.15;;
22679;SDS011;11507;44.858;10.374;2022-07-17T15:15:57;10.68;;;4.60;;
22679;SDS011;11507;44.858;10.374;2022-07-17T15:18:23;6.25;;;4.18;;
22679;SDS011;11507;44.858;10.374;2022-07-17T15:20:49;6.85;;;4.38;;